This is the latest recevied weather packets stored in our database for station/object W4FXD. If no packets are shown the sender has not sent any weather packets the latest 10 day(s).
| Time | Temp. | Humidity | Pressure | Rain* | Wind** | Luminosity | Snow |
|---|---|---|---|---|---|---|---|
| 1778108016 | 18.89° C | 99% | 1011.9 hPa | 1.27 mm | - | 17 W/m² | - |
| 1778107713 | 18.89° C | 99% | 1011.4 hPa | 1.78 mm | - | 17 W/m² | - |
| 1778107410 | 18.89° C | 99% | 1012.1 hPa | 1.78 mm | - | 6 W/m² | - |
| 1778107106 | 18.89° C | 99% | 1012.7 hPa | 1.78 mm | - | 6 W/m² | - |
| 1778106801 | 18.89° C | 99% | 1011.8 hPa | 0 mm | - | 39 W/m² | - |
| 1778106499 | 18.89° C | 99% | 1011.9 hPa | 0 mm | - | 39 W/m² | - |
| 1778106194 | 18.89° C | 99% | 1011.9 hPa | 1.27 mm | - | 42 W/m² | - |
| 1778105893 | 18.89° C | 99% | 1011.9 hPa | 1.27 mm | - | 49 W/m² | - |
| 1778105590 | 18.89° C | 99% | 1011.9 hPa | 0 mm | - | 65 W/m² | - |
| 1778105288 | 18.89° C | 99% | 1011.5 hPa | 3.05 mm | - | 75 W/m² | - |
| 1778104982 | 18.89° C | 99% | 1011.8 hPa | 3.05 mm | - | 61 W/m² | - |
| 1778104679 | 18.89° C | 99% | 1011.9 hPa | 1.27 mm | - | 20 W/m² | - |
| 1778104375 | 18.89° C | 99% | 1012 hPa | 0 mm | - | 11 W/m² | - |
| 1778104071 | 18.89° C | 99% | 1011.9 hPa | 1.78 mm | - | 27 W/m² | - |
| 1778103768 | 18.89° C | 99% | 1011.8 hPa | 4.83 mm | - | 8 W/m² | - |
| 1778103467 | 18.89° C | 99% | 1011.4 hPa | 3.05 mm | - | 20 W/m² | - |
| 1778103163 | 18.89° C | 99% | 1011.4 hPa | 1.78 mm | - | 79 W/m² | - |
| 1778102860 | 18.89° C | 99% | 1012 hPa | 1.78 mm | - | 23 W/m² | - |
| 1778102556 | 19.44° C | 99% | 1012 hPa | 0 mm | - | 20 W/m² | - |
| 1778102252 | 19.44° C | 99% | 1011.8 hPa | 0 mm | - | 19 W/m² | - |
| 1778101948 | 19.44° C | 99% | 1011.8 hPa | 0 mm | - | 33 W/m² | - |
| 1778101645 | 19.44° C | 99% | 1011.9 hPa | 0 mm | - | 30 W/m² | - |
| 1778101342 | 19.44° C | 99% | 1011.4 hPa | 0 mm | - | 73 W/m² | - |
| 1778101039 | 19.44° C | 99% | 1011.4 hPa | 0 mm | - | 66 W/m² | - |
| 1778100734 | 19.44° C | 98% | 1011 hPa | 1.27 mm | - | 77 W/m² | - |
* Rain latest hour (hover to see other rain measurements)
** Current wind speed in m/s (hover to see current wind gust speed)